sensor_id;sensor_type;location;lat;lon;timestamp;pressure;altitude;pressure_sealevel;temperature;humidity
11327;BME280;5718;42.138;24.762;2023-07-22T00:01:16;99364.03;;;26.60;100.00
11327;BME280;5718;42.138;24.762;2023-07-22T00:03:43;99360.28;;;26.50;100.00
11327;BME280;5718;42.138;24.762;2023-07-22T00:06:10;99366.41;;;26.38;100.00
11327;BME280;5718;42.138;24.762;2023-07-22T00:08:39;99356.75;;;26.22;100.00
11327;BME280;5718;42.138;24.762;2023-07-22T00:11:06;99350.50;;;25.96;100.00
11327;BME280;5718;42.138;24.762;2023-07-22T00:13:33;99355.22;;;26.32;100.00
11327;BME280;5718;42.138;24.762;2023-07-22T00:16:01;99346.19;;;26.08;100.00
11327;BME280;5718;42.138;24.762;2023-07-22T00:18:30;99348.75;;;26.10;100.00
11327;BME280;5718;42.138;24.762;2023-07-22T00:20:57;99355.19;;;25.93;100.00
11327;BME280;5718;42.138;24.762;2023-07-22T00:23:24;99355.88;;;26.09;100.00
11327;BME280;5718;42.138;24.762;2023-07-22T00:25:53;99362.44;;;25.91;100.00
11327;BME280;5718;42.138;24.762;2023-07-22T00:28:19;99370.28;;;26.07;100.00
11327;BME280;5718;42.138;24.762;2023-07-22T00:30:46;99358.16;;;26.15;100.00
11327;BME280;5718;42.138;24.762;2023-07-22T00:33:14;99358.72;;;26.06;100.00
11327;BME280;5718;42.138;24.762;2023-07-22T00:35:41;99369.25;;;25.95;100.00
11327;BME280;5718;42.138;24.762;2023-07-22T00:38:07;99367.78;;;26.03;100.00
11327;BME280;5718;42.138;24.762;2023-07-22T00:40:35;99371.50;;;26.01;100.00
11327;BME280;5718;42.138;24.762;2023-07-22T00:43:04;99370.56;;;26.02;100.00
11327;BME280;5718;42.138;24.762;2023-07-22T00:45:32;99374.19;;;26.01;100.00
11327;BME280;5718;42.138;24.762;2023-07-22T00:47:59;99370.66;;;26.00;100.00
11327;BME280;5718;42.138;24.762;2023-07-22T00:50:26;99370.50;;;26.16;100.00
11327;BME280;5718;42.138;24.762;2023-07-22T00:52:53;99380.00;;;26.20;100.00
11327;BME280;5718;42.138;24.762;2023-07-22T00:55:20;99385.47;;;26.04;100.00
11327;BME280;5718;42.138;24.762;2023-07-22T00:57:47;99386.88;;;26.10;100.00
11327;BME280;5718;42.138;24.762;2023-07-22T01:00:15;99385.75;;;26.27;100.00
11327;BME280;5718;42.138;24.762;2023-07-22T01:02:43;99382.47;;;26.23;100.00
11327;BME280;5718;42.138;24.762;2023-07-22T01:05:10;99393.41;;;26.19;100.00
11327;BME280;5718;42.138;24.762;2023-07-22T01:07:38;99395.34;;;26.29;100.00
11327;BME280;5718;42.138;24.762;2023-07-22T01:10:06;99393.78;;;26.00;100.00
11327;BME280;5718;42.138;24.762;2023-07-22T01:12:33;99394.72;;;25.99;100.00
11327;BME280;5718;42.138;24.762;2023-07-22T01:15:00;99403.59;;;25.85;100.00
11327;BME280;5718;42.138;24.762;2023-07-22T01:17:34;99403.28;;;25.90;100.00
11327;BME280;5718;42.138;24.762;2023-07-22T01:20:03;99400.44;;;25.64;100.00
11327;BME280;5718;42.138;24.762;2023-07-22T01:22:31;99392.31;;;25.39;100.00
11327;BME280;5718;42.138;24.762;2023-07-22T01:25:00;99390.38;;;25.84;100.00
11327;BME280;5718;42.138;24.762;2023-07-22T01:27:27;99390.19;;;25.87;100.00
11327;BME280;5718;42.138;24.762;2023-07-22T01:29:54;99405.56;;;25.82;100.00
11327;BME280;5718;42.138;24.762;2023-07-22T01:32:21;99413.22;;;25.73;100.00
11327;BME280;5718;42.138;24.762;2023-07-22T01:34:47;99411.09;;;25.79;100.00
11327;BME280;5718;42.138;24.762;2023-07-22T01:37:14;99402.16;;;25.80;100.00
11327;BME280;5718;42.138;24.762;2023-07-22T01:39:41;99404.09;;;25.77;100.00
11327;BME280;5718;42.138;24.762;2023-07-22T01:42:10;99400.50;;;25.50;100.00
11327;BME280;5718;42.138;24.762;2023-07-22T01:44:36;99406.09;;;25.60;100.00
11327;BME280;5718;42.138;24.762;2023-07-22T01:47:03;99410.44;;;25.46;100.00
11327;BME280;5718;42.138;24.762;2023-07-22T01:49:30;99412.25;;;25.32;100.00
11327;BME280;5718;42.138;24.762;2023-07-22T01:51:57;99411.78;;;25.39;100.00
11327;BME280;5718;42.138;24.762;2023-07-22T01:54:24;99410.28;;;25.49;100.00
11327;BME280;5718;42.138;24.762;2023-07-22T01:56:50;99400.28;;;25.39;100.00
11327;BME280;5718;42.138;24.762;2023-07-22T01:59:18;99404.47;;;25.43;100.00
11327;BME280;5718;42.138;24.762;2023-07-22T02:01:45;99404.75;;;25.53;100.00
11327;BME280;5718;42.138;24.762;2023-07-22T02:04:12;99406.56;;;25.38;100.00
11327;BME280;5718;42.138;24.762;2023-07-22T02:06:39;99407.31;;;25.40;100.00
11327;BME280;5718;42.138;24.762;2023-07-22T02:09:06;99411.22;;;25.34;100.00
11327;BME280;5718;42.138;24.762;2023-07-22T02:11:34;99411.50;;;25.30;100.00
11327;BME280;5718;42.138;24.762;2023-07-22T02:14:01;99412.19;;;25.33;100.00
11327;BME280;5718;42.138;24.762;2023-07-22T02:16:30;99418.91;;;25.53;100.00
11327;BME280;5718;42.138;24.762;2023-07-22T02:18:57;99410.75;;;25.42;100.00
11327;BME280;5718;42.138;24.762;2023-07-22T02:21:23;99415.13;;;25.43;100.00
11327;BME280;5718;42.138;24.762;2023-07-22T02:23:50;99418.81;;;25.55;100.00
11327;BME280;5718;42.138;24.762;2023-07-22T02:26:17;99418.44;;;25.46;100.00
11327;BME280;5718;42.138;24.762;2023-07-22T02:28:44;99429.44;;;25.55;100.00
11327;BME280;5718;42.138;24.762;2023-07-22T02:31:12;99430.72;;;25.49;100.00
11327;BME280;5718;42.138;24.762;2023-07-22T02:33:40;99429.91;;;25.61;100.00
11327;BME280;5718;42.138;24.762;2023-07-22T02:36:07;99426.19;;;25.64;100.00
11327;BME280;5718;42.138;24.762;2023-07-22T02:38:34;99422.03;;;25.60;100.00
11327;BME280;5718;42.138;24.762;2023-07-22T02:41:01;99421.56;;;25.53;100.00
11327;BME280;5718;42.138;24.762;2023-07-22T02:43:28;99416.91;;;25.57;100.00
11327;BME280;5718;42.138;24.762;2023-07-22T02:45:55;99415.78;;;25.46;100.00
11327;BME280;5718;42.138;24.762;2023-07-22T02:48:22;99414.16;;;25.58;100.00
11327;BME280;5718;42.138;24.762;2023-07-22T02:50:50;99406.56;;;25.38;100.00
11327;BME280;5718;42.138;24.762;2023-07-22T02:53:16;99411.41;;;25.17;100.00
11327;BME280;5718;42.138;24.762;2023-07-22T02:55:44;99409.97;;;25.40;100.00
11327;BME280;5718;42.138;24.762;2023-07-22T02:58:11;99413.88;;;25.20;100.00
11327;BME280;5718;42.138;24.762;2023-07-22T03:00:38;99411.31;;;25.18;100.00
11327;BME280;5718;42.138;24.762;2023-07-22T03:03:05;99411.88;;;25.09;100.00
11327;BME280;5718;42.138;24.762;2023-07-22T03:05:32;99427.47;;;25.30;100.00
11327;BME280;5718;42.138;24.762;2023-07-22T03:08:00;99418.91;;;25.39;100.00
11327;BME280;5718;42.138;24.762;2023-07-22T03:10:28;99413.22;;;25.16;100.00
11327;BME280;5718;42.138;24.762;2023-07-22T03:12:55;99409.13;;;25.11;100.00
11327;BME280;5718;42.138;24.762;2023-07-22T03:15:22;99405.66;;;24.94;100.00
11327;BME280;5718;42.138;24.762;2023-07-22T03:17:51;99401.53;;;25.05;100.00
11327;BME280;5718;42.138;24.762;2023-07-22T03:20:18;99406.38;;;25.12;100.00
11327;BME280;5718;42.138;24.762;2023-07-22T03:22:45;99406.47;;;25.11;100.00
11327;BME280;5718;42.138;24.762;2023-07-22T03:25:14;99407.13;;;25.29;100.00
11327;BME280;5718;42.138;24.762;2023-07-22T03:27:43;99404.28;;;25.17;100.00
11327;BME280;5718;42.138;24.762;2023-07-22T03:30:12;99406.38;;;25.27;100.00
11327;BME280;5718;42.138;24.762;2023-07-22T03:32:40;99410.75;;;25.42;100.00
11327;BME280;5718;42.138;24.762;2023-07-22T03:35:07;99420.72;;;25.53;100.00
11327;BME280;5718;42.138;24.762;2023-07-22T03:37:35;99428.22;;;25.60;100.00
11327;BME280;5718;42.138;24.762;2023-07-22T03:40:03;99429.38;;;25.42;100.00
11327;BME280;5718;42.138;24.762;2023-07-22T03:42:34;99428.03;;;25.49;100.00
11327;BME280;5718;42.138;24.762;2023-07-22T03:45:00;99427.09;;;25.50;100.00
11327;BME280;5718;42.138;24.762;2023-07-22T03:47:27;99414.81;;;25.47;100.00
11327;BME280;5718;42.138;24.762;2023-07-22T03:49:54;99424.31;;;25.52;100.00
11327;BME280;5718;42.138;24.762;2023-07-22T03:52:20;99421.41;;;25.42;100.00
11327;BME280;5718;42.138;24.762;2023-07-22T03:54:47;99427.00;;;25.52;100.00
11327;BME280;5718;42.138;24.762;2023-07-22T03:57:14;99428.22;;;25.60;100.00
11327;BME280;5718;42.138;24.762;2023-07-22T03:59:42;99431.25;;;25.54;100.00
11327;BME280;5718;42.138;24.762;2023-07-22T04:02:08;99426.03;;;25.53;100.00
11327;BME280;5718;42.138;24.762;2023-07-22T04:04:35;99430.22;;;25.71;100.00
11327;BME280;5718;42.138;24.762;2023-07-22T04:07:02;99447.59;;;25.91;100.00
11327;BME280;5718;42.138;24.762;2023-07-22T04:09:33;99451.41;;;25.87;100.00
11327;BME280;5718;42.138;24.762;2023-07-22T04:11:59;99443.44;;;25.72;100.00
11327;BME280;5718;42.138;24.762;2023-07-22T04:14:26;99447.97;;;25.70;100.00
11327;BME280;5718;42.138;24.762;2023-07-22T04:16:54;99444.97;;;25.76;100.00
11327;BME280;5718;42.138;24.762;2023-07-22T04:19:21;99443.25;;;25.75;100.00
11327;BME280;5718;42.138;24.762;2023-07-22T04:21:48;99441.34;;;25.77;100.00
11327;BME280;5718;42.138;24.762;2023-07-22T04:24:14;99445.47;;;26.10;100.00
11327;BME280;5718;42.138;24.762;2023-07-22T04:26:42;99448.13;;;26.10;100.00
11327;BME280;5718;42.138;24.762;2023-07-22T04:29:10;99449.84;;;25.97;100.00
11327;BME280;5718;42.138;24.762;2023-07-22T04:31:38;99445.75;;;26.05;100.00
11327;BME280;5718;42.138;24.762;2023-07-22T04:34:06;99449.19;;;26.08;100.00
11327;BME280;5718;42.138;24.762;2023-07-22T04:36:33;99447.31;;;26.22;100.00
11327;BME280;5718;42.138;24.762;2023-07-22T04:39:00;99444.28;;;26.14;100.00
11327;BME280;5718;42.138;24.762;2023-07-22T04:41:26;99450.41;;;26.16;100.00
11327;BME280;5718;42.138;24.762;2023-07-22T04:43:53;99457.31;;;26.19;100.00
11327;BME280;5718;42.138;24.762;2023-07-22T04:46:20;99449.94;;;26.10;100.00
11327;BME280;5718;42.138;24.762;2023-07-22T04:48:47;99454.16;;;25.99;100.00
11327;BME280;5718;42.138;24.762;2023-07-22T04:51:15;99447.16;;;26.11;100.00
11327;BME280;5718;42.138;24.762;2023-07-22T04:53:42;99446.06;;;26.01;100.00
11327;BME280;5718;42.138;24.762;2023-07-22T04:56:08;99450.88;;;26.09;100.00
11327;BME280;5718;42.138;24.762;2023-07-22T04:58:35;99448.34;;;26.34;100.00
11327;BME280;5718;42.138;24.762;2023-07-22T05:01:02;99453.81;;;26.45;100.00
11327;BME280;5718;42.138;24.762;2023-07-22T05:03:28;99453.47;;;26.23;100.00
11327;BME280;5718;42.138;24.762;2023-07-22T05:05:55;99451.56;;;26.66;100.00
11327;BME280;5718;42.138;24.762;2023-07-22T05:08:24;99443.97;;;26.60;100.00
11327;BME280;5718;42.138;24.762;2023-07-22T05:10:51;99445.50;;;26.77;100.00
11327;BME280;5718;42.138;24.762;2023-07-22T05:13:18;99448.53;;;26.98;100.00
11327;BME280;5718;42.138;24.762;2023-07-22T05:15:45;99445.75;;;26.99;100.00
11327;BME280;5718;42.138;24.762;2023-07-22T05:18:12;99449.75;;;27.06;100.00
11327;BME280;5718;42.138;24.762;2023-07-22T05:20:38;99444.78;;;26.48;100.00
11327;BME280;5718;42.138;24.762;2023-07-22T05:23:05;99451.91;;;26.74;100.00
11327;BME280;5718;42.138;24.762;2023-07-22T05:25:34;99450.97;;;27.01;100.00
11327;BME280;5718;42.138;24.762;2023-07-22T05:28:00;99458.00;;;27.02;100.00
11327;BME280;5718;42.138;24.762;2023-07-22T05:30:27;99460.97;;;27.24;100.00
11327;BME280;5718;42.138;24.762;2023-07-22T05:32:54;99460.97;;;26.84;100.00
11327;BME280;5718;42.138;24.762;2023-07-22T05:35:20;99457.53;;;27.35;100.00
11327;BME280;5718;42.138;24.762;2023-07-22T05:37:48;99459.53;;;27.06;100.00
11327;BME280;5718;42.138;24.762;2023-07-22T05:40:14;99458.47;;;27.47;100.00
11327;BME280;5718;42.138;24.762;2023-07-22T05:42:43;99457.75;;;27.70;100.00
11327;BME280;5718;42.138;24.762;2023-07-22T05:45:10;99462.84;;;27.86;100.00
11327;BME280;5718;42.138;24.762;2023-07-22T05:47:39;99458.22;;;28.01;100.00
11327;BME280;5718;42.138;24.762;2023-07-22T05:50:06;99461.19;;;28.09;100.00
11327;BME280;5718;42.138;24.762;2023-07-22T05:52:33;99465.88;;;27.56;100.00
11327;BME280;5718;42.138;24.762;2023-07-22T05:55:00;99458.09;;;26.87;100.00
11327;BME280;5718;42.138;24.762;2023-07-22T05:57:27;99460.19;;;27.22;100.00
11327;BME280;5718;42.138;24.762;2023-07-22T05:59:55;99456.13;;;27.29;100.00
11327;BME280;5718;42.138;24.762;2023-07-22T06:02:21;99441.59;;;27.71;100.00
11327;BME280;5718;42.138;24.762;2023-07-22T06:04:48;99450.06;;;28.15;100.00
11327;BME280;5718;42.138;24.762;2023-07-22T06:07:15;99456.50;;;28.36;100.00
11327;BME280;5718;42.138;24.762;2023-07-22T06:09:41;99451.88;;;27.65;100.00
11327;BME280;5718;42.138;24.762;2023-07-22T06:12:08;99450.78;;;27.55;100.00
11327;BME280;5718;42.138;24.762;2023-07-22T06:14:35;99445.25;;;27.70;100.00
11327;BME280;5718;42.138;24.762;2023-07-22T06:17:03;99446.88;;;27.73;100.00
11327;BME280;5718;42.138;24.762;2023-07-22T06:19:30;99447.72;;;27.10;100.00
11327;BME280;5718;42.138;24.762;2023-07-22T06:21:57;99441.59;;;27.71;100.00
11327;BME280;5718;42.138;24.762;2023-07-22T06:24:23;99444.47;;;28.31;100.00
11327;BME280;5718;42.138;24.762;2023-07-22T06:26:50;99447.91;;;28.68;100.00
11327;BME280;5718;42.138;24.762;2023-07-22T06:29:17;99456.06;;;29.01;100.00
11327;BME280;5718;42.138;24.762;2023-07-22T06:31:43;99450.53;;;29.38;100.00
11327;BME280;5718;42.138;24.762;2023-07-22T06:34:12;99447.63;;;29.30;100.00
11327;BME280;5718;42.138;24.762;2023-07-22T06:36:38;99452.34;;;29.26;100.00
11327;BME280;5718;42.138;24.762;2023-07-22T06:39:05;99452.72;;;29.33;100.00
11327;BME280;5718;42.138;24.762;2023-07-22T06:41:32;99450.81;;;29.69;100.00
11327;BME280;5718;42.138;24.762;2023-07-22T06:43:58;99451.16;;;29.53;100.00
11327;BME280;5718;42.138;24.762;2023-07-22T06:46:25;99444.47;;;29.58;100.00
11327;BME280;5718;42.138;24.762;2023-07-22T06:48:52;99457.63;;;29.84;100.00
11327;BME280;5718;42.138;24.762;2023-07-22T06:51:20;99448.97;;;29.80;100.00
11327;BME280;5718;42.138;24.762;2023-07-22T06:53:46;99458.69;;;30.15;100.00
11327;BME280;5718;42.138;24.762;2023-07-22T06:56:13;99455.91;;;30.48;99.38
11327;BME280;5718;42.138;24.762;2023-07-22T06:58:40;99464.28;;;30.01;100.00
11327;BME280;5718;42.138;24.762;2023-07-22T07:01:07;99458.97;;;29.89;100.00
11327;BME280;5718;42.138;24.762;2023-07-22T07:03:33;99472.19;;;30.25;100.00
11327;BME280;5718;42.138;24.762;2023-07-22T07:06:00;99468.94;;;30.85;95.68
11327;BME280;5718;42.138;24.762;2023-07-22T07:08:28;99460.53;;;30.90;94.90
11327;BME280;5718;42.138;24.762;2023-07-22T07:10:55;99459.56;;;30.15;97.57
11327;BME280;5718;42.138;24.762;2023-07-22T07:13:22;99453.97;;;29.96;100.00
11327;BME280;5718;42.138;24.762;2023-07-22T07:15:49;99459.28;;;31.15;95.23
11327;BME280;5718;42.138;24.762;2023-07-22T07:18:15;99449.66;;;31.12;93.47
11327;BME280;5718;42.138;24.762;2023-07-22T07:20:43;99449.38;;;30.94;94.92
11327;BME280;5718;42.138;24.762;2023-07-22T07:23:10;99449.66;;;30.70;97.42
11327;BME280;5718;42.138;24.762;2023-07-22T07:25:38;99444.28;;;30.59;97.90
